sensor_id;sensor_type;location;lat;lon;timestamp;temperature;humidity
30379;DHT22;17168;49.164;9.060;2022-07-04T00:00:17;23.60;61.80
30379;DHT22;17168;49.164;9.060;2022-07-04T00:02:45;23.60;62.00
30379;DHT22;17168;49.164;9.060;2022-07-04T00:05:13;23.50;62.30
30379;DHT22;17168;49.164;9.060;2022-07-04T00:07:42;23.50;62.50
30379;DHT22;17168;49.164;9.060;2022-07-04T00:10:12;23.50;62.80
30379;DHT22;17168;49.164;9.060;2022-07-04T00:12:40;23.40;62.90
30379;DHT22;17168;49.164;9.060;2022-07-04T00:15:08;23.30;63.00
30379;DHT22;17168;49.164;9.060;2022-07-04T00:17:36;23.30;63.20
30379;DHT22;17168;49.164;9.060;2022-07-04T00:20:04;23.30;63.40
30379;DHT22;17168;49.164;9.060;2022-07-04T00:22:32;23.20;63.70
30379;DHT22;17168;49.164;9.060;2022-07-04T00:24:59;23.20;64.00
30379;DHT22;17168;49.164;9.060;2022-07-04T00:27:26;23.10;64.30
30379;DHT22;17168;49.164;9.060;2022-07-04T00:29:54;23.00;64.50
30379;DHT22;17168;49.164;9.060;2022-07-04T00:32:21;23.00;64.90
30379;DHT22;17168;49.164;9.060;2022-07-04T00:34:48;22.90;65.10
30379;DHT22;17168;49.164;9.060;2022-07-04T00:37:15;22.90;65.30
30379;DHT22;17168;49.164;9.060;2022-07-04T00:39:42;22.80;65.60
30379;DHT22;17168;49.164;9.060;2022-07-04T00:42:09;22.80;66.10
30379;DHT22;17168;49.164;9.060;2022-07-04T00:44:37;22.70;66.40
30379;DHT22;17168;49.164;9.060;2022-07-04T00:47:06;22.60;66.70
30379;DHT22;17168;49.164;9.060;2022-07-04T00:49:34;22.60;66.80
30379;DHT22;17168;49.164;9.060;2022-07-04T00:52:01;22.60;67.50
30379;DHT22;17168;49.164;9.060;2022-07-04T00:54:30;22.50;67.70
30379;DHT22;17168;49.164;9.060;2022-07-04T00:56:58;22.50;67.30
30379;DHT22;17168;49.164;9.060;2022-07-04T00:59:27;22.50;67.30
30379;DHT22;17168;49.164;9.060;2022-07-04T01:01:54;22.50;67.50
30379;DHT22;17168;49.164;9.060;2022-07-04T01:04:23;22.40;67.60
30379;DHT22;17168;49.164;9.060;2022-07-04T01:06:52;22.40;67.80
30379;DHT22;17168;49.164;9.060;2022-07-04T01:09:19;22.40;67.80
30379;DHT22;17168;49.164;9.060;2022-07-04T01:11:48;22.40;67.70
30379;DHT22;17168;49.164;9.060;2022-07-04T01:14:15;22.30;67.60
30379;DHT22;17168;49.164;9.060;2022-07-04T01:16:42;22.30;67.60
30379;DHT22;17168;49.164;9.060;2022-07-04T01:19:09;22.30;67.60
30379;DHT22;17168;49.164;9.060;2022-07-04T01:21:38;22.30;68.20
30379;DHT22;17168;49.164;9.060;2022-07-04T01:24:05;22.30;67.70
30379;DHT22;17168;49.164;9.060;2022-07-04T01:26:32;22.30;67.80
30379;DHT22;17168;49.164;9.060;2022-07-04T01:28:59;22.30;67.80
30379;DHT22;17168;49.164;9.060;2022-07-04T01:31:26;22.30;67.90
30379;DHT22;17168;49.164;9.060;2022-07-04T01:33:53;22.20;68.10
30379;DHT22;17168;49.164;9.060;2022-07-04T01:36:20;22.10;68.20
30379;DHT22;17168;49.164;9.060;2022-07-04T01:38:48;22.10;68.40
30379;DHT22;17168;49.164;9.060;2022-07-04T01:41:15;22.00;68.50
30379;DHT22;17168;49.164;9.060;2022-07-04T01:43:41;22.00;68.70
30379;DHT22;17168;49.164;9.060;2022-07-04T01:46:08;22.00;68.80
30379;DHT22;17168;49.164;9.060;2022-07-04T01:48:35;21.90;69.10
30379;DHT22;17168;49.164;9.060;2022-07-04T01:51:02;21.90;69.30
30379;DHT22;17168;49.164;9.060;2022-07-04T01:53:29;21.90;69.40
30379;DHT22;17168;49.164;9.060;2022-07-04T01:55:57;21.80;69.50
30379;DHT22;17168;49.164;9.060;2022-07-04T01:58:24;21.80;69.60
30379;DHT22;17168;49.164;9.060;2022-07-04T02:00:51;21.80;69.70
30379;DHT22;17168;49.164;9.060;2022-07-04T02:03:37;21.80;69.90
30379;DHT22;17168;49.164;9.060;2022-07-04T02:06:03;21.70;69.90
30379;DHT22;17168;49.164;9.060;2022-07-04T02:08:30;21.60;70.10
30379;DHT22;17168;49.164;9.060;2022-07-04T02:11:18;21.50;70.30
30379;DHT22;17168;49.164;9.060;2022-07-04T02:13:45;21.50;70.60
30379;DHT22;17168;49.164;9.060;2022-07-04T02:16:12;21.40;70.80
30379;DHT22;17168;49.164;9.060;2022-07-04T02:18:39;21.30;70.90
30379;DHT22;17168;49.164;9.060;2022-07-04T02:21:06;21.20;71.10
30379;DHT22;17168;49.164;9.060;2022-07-04T02:23:32;21.20;71.30
30379;DHT22;17168;49.164;9.060;2022-07-04T02:25:59;21.10;71.30
30379;DHT22;17168;49.164;9.060;2022-07-04T02:28:27;21.10;71.40
30379;DHT22;17168;49.164;9.060;2022-07-04T02:30:54;21.00;71.50
30379;DHT22;17168;49.164;9.060;2022-07-04T02:33:21;21.00;71.60
30379;DHT22;17168;49.164;9.060;2022-07-04T02:35:48;21.00;71.80
30379;DHT22;17168;49.164;9.060;2022-07-04T02:38:15;20.90;71.90
30379;DHT22;17168;49.164;9.060;2022-07-04T02:40:42;20.90;72.00
30379;DHT22;17168;49.164;9.060;2022-07-04T02:43:09;20.90;72.00
30379;DHT22;17168;49.164;9.060;2022-07-04T02:45:37;20.80;72.20
30379;DHT22;17168;49.164;9.060;2022-07-04T02:48:04;20.80;72.40
30379;DHT22;17168;49.164;9.060;2022-07-04T02:50:31;20.80;72.50
30379;DHT22;17168;49.164;9.060;2022-07-04T02:52:58;20.70;72.50
30379;DHT22;17168;49.164;9.060;2022-07-04T02:55:25;20.80;72.60
30379;DHT22;17168;49.164;9.060;2022-07-04T02:57:51;20.70;72.60
30379;DHT22;17168;49.164;9.060;2022-07-04T03:00:18;20.70;72.70
30379;DHT22;17168;49.164;9.060;2022-07-04T03:02:46;20.70;72.80
30379;DHT22;17168;49.164;9.060;2022-07-04T03:05:13;20.60;72.80
30379;DHT22;17168;49.164;9.060;2022-07-04T03:07:40;20.60;72.90
30379;DHT22;17168;49.164;9.060;2022-07-04T03:10:08;20.60;72.90
30379;DHT22;17168;49.164;9.060;2022-07-04T03:12:35;20.50;73.10
30379;DHT22;17168;49.164;9.060;2022-07-04T03:15:02;20.50;73.20
30379;DHT22;17168;49.164;9.060;2022-07-04T03:17:29;20.40;73.30
30379;DHT22;17168;49.164;9.060;2022-07-04T03:19:58;20.40;73.50
30379;DHT22;17168;49.164;9.060;2022-07-04T03:22:25;20.40;73.60
30379;DHT22;17168;49.164;9.060;2022-07-04T03:24:52;20.40;73.60
30379;DHT22;17168;49.164;9.060;2022-07-04T03:27:19;20.40;73.90
30379;DHT22;17168;49.164;9.060;2022-07-04T03:29:46;20.30;73.90
30379;DHT22;17168;49.164;9.060;2022-07-04T03:32:12;20.30;74.10
30379;DHT22;17168;49.164;9.060;2022-07-04T03:34:39;20.20;74.20
30379;DHT22;17168;49.164;9.060;2022-07-04T03:37:07;20.20;74.30
30379;DHT22;17168;49.164;9.060;2022-07-04T03:39:34;20.20;74.50
30379;DHT22;17168;49.164;9.060;2022-07-04T03:42:01;20.20;74.50
30379;DHT22;17168;49.164;9.060;2022-07-04T03:44:28;20.20;74.70
30379;DHT22;17168;49.164;9.060;2022-07-04T03:46:54;20.10;74.80
30379;DHT22;17168;49.164;9.060;2022-07-04T03:49:21;20.10;74.90
30379;DHT22;17168;49.164;9.060;2022-07-04T03:51:48;20.10;75.00
30379;DHT22;17168;49.164;9.060;2022-07-04T03:54:16;20.10;75.30
30379;DHT22;17168;49.164;9.060;2022-07-04T03:56:43;20.10;75.50
30379;DHT22;17168;49.164;9.060;2022-07-04T03:59:10;20.10;75.60
30379;DHT22;17168;49.164;9.060;2022-07-04T04:01:37;20.10;76.00
30379;DHT22;17168;49.164;9.060;2022-07-04T04:04:04;20.00;76.40
30379;DHT22;17168;49.164;9.060;2022-07-04T04:06:50;19.90;76.70
30379;DHT22;17168;49.164;9.060;2022-07-04T04:09:18;19.90;77.10
30379;DHT22;17168;49.164;9.060;2022-07-04T04:11:46;19.90;77.60
30379;DHT22;17168;49.164;9.060;2022-07-04T04:14:12;19.90;78.00
30379;DHT22;17168;49.164;9.060;2022-07-04T04:16:39;19.90;78.20
30379;DHT22;17168;49.164;9.060;2022-07-04T04:19:08;19.90;78.60
30379;DHT22;17168;49.164;9.060;2022-07-04T04:21:35;19.90;78.80
30379;DHT22;17168;49.164;9.060;2022-07-04T04:24:02;19.90;79.00
30379;DHT22;17168;49.164;9.060;2022-07-04T04:26:30;19.90;79.30
30379;DHT22;17168;49.164;9.060;2022-07-04T04:28:57;19.90;79.90
30379;DHT22;17168;49.164;9.060;2022-07-04T04:31:24;19.90;80.20
30379;DHT22;17168;49.164;9.060;2022-07-04T04:33:51;19.80;80.50
30379;DHT22;17168;49.164;9.060;2022-07-04T04:36:18;19.80;80.70
30379;DHT22;17168;49.164;9.060;2022-07-04T04:38:45;19.80;80.60
30379;DHT22;17168;49.164;9.060;2022-07-04T04:41:12;19.90;80.50
30379;DHT22;17168;49.164;9.060;2022-07-04T04:43:40;19.90;80.50
30379;DHT22;17168;49.164;9.060;2022-07-04T04:46:06;19.90;80.50
30379;DHT22;17168;49.164;9.060;2022-07-04T04:48:33;19.90;80.50
30379;DHT22;17168;49.164;9.060;2022-07-04T04:51:00;19.90;80.80
30379;DHT22;17168;49.164;9.060;2022-07-04T04:53:34;19.90;81.00
30379;DHT22;17168;49.164;9.060;2022-07-04T04:56:01;19.90;81.20
30379;DHT22;17168;49.164;9.060;2022-07-04T04:58:28;20.00;81.20
30379;DHT22;17168;49.164;9.060;2022-07-04T05:00:56;19.90;81.10
30379;DHT22;17168;49.164;9.060;2022-07-04T05:03:43;20.00;81.10
30379;DHT22;17168;49.164;9.060;2022-07-04T05:06:10;20.00;81.00
30379;DHT22;17168;49.164;9.060;2022-07-04T05:08:37;20.00;81.10
30379;DHT22;17168;49.164;9.060;2022-07-04T05:11:04;20.10;81.20
30379;DHT22;17168;49.164;9.060;2022-07-04T05:13:31;20.10;81.40
30379;DHT22;17168;49.164;9.060;2022-07-04T05:15:59;20.00;81.60
30379;DHT22;17168;49.164;9.060;2022-07-04T05:18:27;20.00;81.70
30379;DHT22;17168;49.164;9.060;2022-07-04T05:20:53;20.00;81.70
30379;DHT22;17168;49.164;9.060;2022-07-04T05:23:21;20.00;82.00
30379;DHT22;17168;49.164;9.060;2022-07-04T05:25:48;20.00;82.00
30379;DHT22;17168;49.164;9.060;2022-07-04T05:28:15;20.10;81.60
30379;DHT22;17168;49.164;9.060;2022-07-04T05:30:42;20.10;81.70
30379;DHT22;17168;49.164;9.060;2022-07-04T05:33:10;20.10;81.70
30379;DHT22;17168;49.164;9.060;2022-07-04T05:35:38;20.10;82.00
30379;DHT22;17168;49.164;9.060;2022-07-04T05:38:04;20.20;81.60
30379;DHT22;17168;49.164;9.060;2022-07-04T05:40:31;20.30;81.50
30379;DHT22;17168;49.164;9.060;2022-07-04T05:43:00;20.30;80.90
30379;DHT22;17168;49.164;9.060;2022-07-04T05:45:27;20.30;80.20
30379;DHT22;17168;49.164;9.060;2022-07-04T05:47:53;20.30;79.70
30379;DHT22;17168;49.164;9.060;2022-07-04T05:50:22;20.40;79.20
30379;DHT22;17168;49.164;9.060;2022-07-04T05:52:48;20.40;78.70
30379;DHT22;17168;49.164;9.060;2022-07-04T05:55:15;20.50;78.40
30379;DHT22;17168;49.164;9.060;2022-07-04T05:57:42;20.50;78.30
30379;DHT22;17168;49.164;9.060;2022-07-04T06:00:12;20.50;78.20
30379;DHT22;17168;49.164;9.060;2022-07-04T06:02:39;20.60;78.10
30379;DHT22;17168;49.164;9.060;2022-07-04T06:05:06;20.60;78.00
30379;DHT22;17168;49.164;9.060;2022-07-04T06:07:34;20.60;78.10
30379;DHT22;17168;49.164;9.060;2022-07-04T06:10:01;20.70;78.00
30379;DHT22;17168;49.164;9.060;2022-07-04T06:12:28;20.70;77.70
30379;DHT22;17168;49.164;9.060;2022-07-04T06:14:55;20.70;77.80
30379;DHT22;17168;49.164;9.060;2022-07-04T06:17:22;20.80;77.60
30379;DHT22;17168;49.164;9.060;2022-07-04T06:19:48;20.80;77.50
30379;DHT22;17168;49.164;9.060;2022-07-04T06:22:15;20.80;77.40
30379;DHT22;17168;49.164;9.060;2022-07-04T06:24:51;20.90;77.30
30379;DHT22;17168;49.164;9.060;2022-07-04T06:27:18;20.90;77.10
30379;DHT22;17168;49.164;9.060;2022-07-04T06:29:45;20.90;76.70
30379;DHT22;17168;49.164;9.060;2022-07-04T06:32:13;20.90;76.60
30379;DHT22;17168;49.164;9.060;2022-07-04T06:34:40;21.00;76.70
30379;DHT22;17168;49.164;9.060;2022-07-04T06:37:25;21.00;76.60
30379;DHT22;17168;49.164;9.060;2022-07-04T06:39:53;21.00;76.20
30379;DHT22;17168;49.164;9.060;2022-07-04T06:42:20;21.10;76.30
30379;DHT22;17168;49.164;9.060;2022-07-04T06:44:47;21.10;76.10
30379;DHT22;17168;49.164;9.060;2022-07-04T06:47:14;21.10;76.00
30379;DHT22;17168;49.164;9.060;2022-07-04T06:49:41;21.10;75.90
30379;DHT22;17168;49.164;9.060;2022-07-04T06:52:08;21.20;75.70
30379;DHT22;17168;49.164;9.060;2022-07-04T06:54:35;21.20;75.70
30379;DHT22;17168;49.164;9.060;2022-07-04T06:57:04;21.30;75.40
30379;DHT22;17168;49.164;9.060;2022-07-04T06:59:50;21.30;75.40
30379;DHT22;17168;49.164;9.060;2022-07-04T07:02:17;21.40;75.30
30379;DHT22;17168;49.164;9.060;2022-07-04T07:04:44;21.40;75.10
30379;DHT22;17168;49.164;9.060;2022-07-04T07:07:11;21.40;74.90
30379;DHT22;17168;49.164;9.060;2022-07-04T07:09:38;21.40;74.80
30379;DHT22;17168;49.164;9.060;2022-07-04T07:12:07;21.50;74.70
30379;DHT22;17168;49.164;9.060;2022-07-04T07:14:33;21.50;74.70
30379;DHT22;17168;49.164;9.060;2022-07-04T07:17:00;21.50;74.50
30379;DHT22;17168;49.164;9.060;2022-07-04T07:19:27;21.60;74.50
30379;DHT22;17168;49.164;9.060;2022-07-04T07:21:54;21.60;74.50
30379;DHT22;17168;49.164;9.060;2022-07-04T07:24:21;21.60;74.50
30379;DHT22;17168;49.164;9.060;2022-07-04T07:26:50;21.70;74.30
30379;DHT22;17168;49.164;9.060;2022-07-04T07:29:18;21.70;73.90
30379;DHT22;17168;49.164;9.060;2022-07-04T07:31:45;21.70;73.90
30379;DHT22;17168;49.164;9.060;2022-07-04T07:34:11;21.70;73.70
30379;DHT22;17168;49.164;9.060;2022-07-04T07:36:38;21.70;73.50
30379;DHT22;17168;49.164;9.060;2022-07-04T07:39:05;21.70;73.50
30379;DHT22;17168;49.164;9.060;2022-07-04T07:41:32;21.80;73.60
30379;DHT22;17168;49.164;9.060;2022-07-04T07:43:59;21.80;73.90
30379;DHT22;17168;49.164;9.060;2022-07-04T07:46:27;21.80;74.10
30379;DHT22;17168;49.164;9.060;2022-07-04T07:48:54;21.80;74.20
30379;DHT22;17168;49.164;9.060;2022-07-04T07:51:21;21.90;74.10
30379;DHT22;17168;49.164;9.060;2022-07-04T07:53:48;21.90;73.90
30379;DHT22;17168;49.164;9.060;2022-07-04T07:56:35;21.90;74.00
30379;DHT22;17168;49.164;9.060;2022-07-04T07:59:02;21.90;73.70
30379;DHT22;17168;49.164;9.060;2022-07-04T08:01:30;21.90;73.40
30379;DHT22;17168;49.164;9.060;2022-07-04T08:03:57;22.00;73.70
30379;DHT22;17168;49.164;9.060;2022-07-04T08:06:48;22.00;73.60
30379;DHT22;17168;49.164;9.060;2022-07-04T08:09:36;22.00;73.60
30379;DHT22;17168;49.164;9.060;2022-07-04T08:12:04;22.00;73.70
30379;DHT22;17168;49.164;9.060;2022-07-04T08:14:32;22.00;73.80
30379;DHT22;17168;49.164;9.060;2022-07-04T08:17:01;22.10;73.60
30379;DHT22;17168;49.164;9.060;2022-07-04T08:19:28;22.10;73.50
30379;DHT22;17168;49.164;9.060;2022-07-04T08:21:55;22.20;73.50
30379;DHT22;17168;49.164;9.060;2022-07-04T08:24:43;22.20;73.60
30379;DHT22;17168;49.164;9.060;2022-07-04T08:27:10;22.30;73.10
30379;DHT22;17168;49.164;9.060;2022-07-04T08:29:37;22.30;73.10
30379;DHT22;17168;49.164;9.060;2022-07-04T08:32:05;22.30;73.00
30379;DHT22;17168;49.164;9.060;2022-07-04T08:34:34;22.30;72.90
30379;DHT22;17168;49.164;9.060;2022-07-04T08:37:01;22.30;72.80
30379;DHT22;17168;49.164;9.060;2022-07-04T08:39:28;22.40;72.70
30379;DHT22;17168;49.164;9.060;2022-07-04T08:41:56;22.50;72.40
30379;DHT22;17168;49.164;9.060;2022-07-04T08:44:27;22.50;71.80
30379;DHT22;17168;49.164;9.060;2022-07-04T08:46:54;22.50;71.20
30379;DHT22;17168;49.164;9.060;2022-07-04T08:49:27;22.60;70.70
30379;DHT22;17168;49.164;9.060;2022-07-04T08:51:58;22.60;70.50
30379;DHT22;17168;49.164;9.060;2022-07-04T08:54:25;22.70;70.50
30379;DHT22;17168;49.164;9.060;2022-07-04T08:57:11;22.80;70.40
30379;DHT22;17168;49.164;9.060;2022-07-04T08:59:57;22.90;70.30
30379;DHT22;17168;49.164;9.060;2022-07-04T09:02:27;22.90;69.60
30379;DHT22;17168;49.164;9.060;2022-07-04T09:04:56;23.00;68.90
30379;DHT22;17168;49.164;9.060;2022-07-04T09:07:23;23.00;67.80
30379;DHT22;17168;49.164;9.060;2022-07-04T09:09:50;23.10;67.70
30379;DHT22;17168;49.164;9.060;2022-07-04T09:12:19;23.10;67.70
30379;DHT22;17168;49.164;9.060;2022-07-04T09:14:46;23.20;67.20
30379;DHT22;17168;49.164;9.060;2022-07-04T09:17:13;23.20;67.00
30379;DHT22;17168;49.164;9.060;2022-07-04T09:19:40;23.30;66.60
30379;DHT22;17168;49.164;9.060;2022-07-04T09:22:09;23.30;66.50
30379;DHT22;17168;49.164;9.060;2022-07-04T09:24:44;23.30;66.50
30379;DHT22;17168;49.164;9.060;2022-07-04T09:27:15;23.40;66.70
30379;DHT22;17168;49.164;9.060;2022-07-04T09:29:54;23.50;66.70
30379;DHT22;17168;49.164;9.060;2022-07-04T09:32:33;23.50;66.30
30379;DHT22;17168;49.164;9.060;2022-07-04T09:35:02;23.60;66.20
30379;DHT22;17168;49.164;9.060;2022-07-04T09:37:38;23.60;65.90
30379;DHT22;17168;49.164;9.060;2022-07-04T09:40:08;23.70;65.70
30379;DHT22;17168;49.164;9.060;2022-07-04T09:42:37;23.70;65.40
30379;DHT22;17168;49.164;9.060;2022-07-04T09:45:06;23.70;65.20
30379;DHT22;17168;49.164;9.060;2022-07-04T09:47:33;23.70;65.10
30379;DHT22;17168;49.164;9.060;2022-07-04T09:50:01;23.80;65.20
30379;DHT22;17168;49.164;9.060;2022-07-04T09:52:28;23.80;65.00
30379;DHT22;17168;49.164;9.060;2022-07-04T09:54:59;23.80;64.90
30379;DHT22;17168;49.164;9.060;2022-07-04T09:57:26;23.90;64.80
30379;DHT22;17168;49.164;9.060;2022-07-04T09:59:53;23.90;65.00
30379;DHT22;17168;49.164;9.060;2022-07-04T10:02:21;23.90;64.80
30379;DHT22;17168;49.164;9.060;2022-07-04T10:04:49;23.90;65.00
30379;DHT22;17168;49.164;9.060;2022-07-04T10:07:30;23.90;65.10
30379;DHT22;17168;49.164;9.060;2022-07-04T10:09:59;23.90;65.30
30379;DHT22;17168;49.164;9.060;2022-07-04T10:12:26;24.00;65.70
30379;DHT22;17168;49.164;9.060;2022-07-04T10:14:54;24.00;65.70
30379;DHT22;17168;49.164;9.060;2022-07-04T10:17:21;24.10;65.60
30379;DHT22;17168;49.164;9.060;2022-07-04T10:19:48;24.10;65.80
30379;DHT22;17168;49.164;9.060;2022-07-04T10:22:19;24.10;65.10
30379;DHT22;17168;49.164;9.060;2022-07-04T10:24:47;24.20;64.60
30379;DHT22;17168;49.164;9.060;2022-07-04T10:27:16;24.30;64.20
30379;DHT22;17168;49.164;9.060;2022-07-04T10:29:43;24.30;63.20
30379;DHT22;17168;49.164;9.060;2022-07-04T10:32:11;24.40;63.00
30379;DHT22;17168;49.164;9.060;2022-07-04T10:34:39;24.40;62.50
30379;DHT22;17168;49.164;9.060;2022-07-04T10:37:07;24.50;62.40
30379;DHT22;17168;49.164;9.060;2022-07-04T10:39:34;24.50;62.80
30379;DHT22;17168;49.164;9.060;2022-07-04T10:42:00;24.60;62.90
30379;DHT22;17168;49.164;9.060;2022-07-04T10:44:30;24.70;63.00
30379;DHT22;17168;49.164;9.060;2022-07-04T10:47:04;24.80;62.60
30379;DHT22;17168;49.164;9.060;2022-07-04T10:49:31;24.80;62.50
30379;DHT22;17168;49.164;9.060;2022-07-04T10:52:11;24.90;62.30
30379;DHT22;17168;49.164;9.060;2022-07-04T10:54:40;24.90;62.40
30379;DHT22;17168;49.164;9.060;2022-07-04T10:57:12;24.90;62.00
30379;DHT22;17168;49.164;9.060;2022-07-04T10:59:42;24.90;61.80
30379;DHT22;17168;49.164;9.060;2022-07-04T11:02:28;24.90;61.80
30379;DHT22;17168;49.164;9.060;2022-07-04T11:05:01;24.90;61.40
30379;DHT22;17168;49.164;9.060;2022-07-04T11:10:37;25.00;60.40
30379;DHT22;17168;49.164;9.060;2022-07-04T11:13:25;25.10;60.30
30379;DHT22;17168;49.164;9.060;2022-07-04T11:16:04;25.10;59.60
30379;DHT22;17168;49.164;9.060;2022-07-04T11:18:42;25.10;59.70
30379;DHT22;17168;49.164;9.060;2022-07-04T11:21:30;25.20;60.00
30379;DHT22;17168;49.164;9.060;2022-07-04T11:23:58;25.20;59.50
30379;DHT22;17168;49.164;9.060;2022-07-04T11:26:25;25.20;59.20
30379;DHT22;17168;49.164;9.060;2022-07-04T11:28:52;25.20;59.20
30379;DHT22;17168;49.164;9.060;2022-07-04T11:31:21;25.20;59.30
30379;DHT22;17168;49.164;9.060;2022-07-04T11:34:00;25.30;59.70
30379;DHT22;17168;49.164;9.060;2022-07-04T11:36:27;25.30;59.40
30379;DHT22;17168;49.164;9.060;2022-07-04T11:38:58;25.40;59.50
30379;DHT22;17168;49.164;9.060;2022-07-04T11:41:27;25.40;59.10
30379;DHT22;17168;49.164;9.060;2022-07-04T11:44:14;25.50;58.70
30379;DHT22;17168;49.164;9.060;2022-07-04T11:47:09;25.60;58.70
30379;DHT22;17168;49.164;9.060;2022-07-04T11:49:42;25.70;58.60
30379;DHT22;17168;49.164;9.060;2022-07-04T11:52:09;25.70;57.90
30379;DHT22;17168;49.164;9.060;2022-07-04T11:54:36;25.80;57.70
30379;DHT22;17168;49.164;9.060;2022-07-04T11:57:21;25.80;57.80
30379;DHT22;17168;49.164;9.060;2022-07-04T11:59:56;25.90;57.60
30379;DHT22;17168;49.164;9.060;2022-07-04T12:02:26;26.00;57.60
30379;DHT22;17168;49.164;9.060;2022-07-04T12:04:53;26.00;57.10
30379;DHT22;17168;49.164;9.060;2022-07-04T12:07:22;26.20;57.10
30379;DHT22;17168;49.164;9.060;2022-07-04T12:09:49;26.40;57.10
30379;DHT22;17168;49.164;9.060;2022-07-04T12:14:57;27.00;56.70
30379;DHT22;17168;49.164;9.060;2022-07-04T12:17:33;27.40;56.60
30379;DHT22;17168;49.164;9.060;2022-07-04T12:20:02;27.70;55.80
30379;DHT22;17168;49.164;9.060;2022-07-04T12:22:34;28.10;55.40
30379;DHT22;17168;49.164;9.060;2022-07-04T12:25:03;28.40;54.30
30379;DHT22;17168;49.164;9.060;2022-07-04T12:27:31;28.70;54.20
30379;DHT22;17168;49.164;9.060;2022-07-04T12:29:59;29.10;53.30
30379;DHT22;17168;49.164;9.060;2022-07-04T12:32:44;29.40;52.90
30379;DHT22;17168;49.164;9.060;2022-07-04T12:35:36;29.60;52.20
30379;DHT22;17168;49.164;9.060;2022-07-04T12:38:05;30.00;51.80
30379;DHT22;17168;49.164;9.060;2022-07-04T12:40:33;30.30;51.30
30379;DHT22;17168;49.164;9.060;2022-07-04T12:43:00;30.50;50.70
30379;DHT22;17168;49.164;9.060;2022-07-04T12:45:44;30.60;49.90
30379;DHT22;17168;49.164;9.060;2022-07-04T12:48:18;30.90;50.00
30379;DHT22;17168;49.164;9.060;2022-07-04T12:50:46;31.20;49.60
30379;DHT22;17168;49.164;9.060;2022-07-04T12:53:13;31.40;48.70
30379;DHT22;17168;49.164;9.060;2022-07-04T12:55:41;31.40;47.70
30379;DHT22;17168;49.164;9.060;2022-07-04T12:58:09;31.40;47.80
30379;DHT22;17168;49.164;9.060;2022-07-04T13:00:36;31.30;47.10
30379;DHT22;17168;49.164;9.060;2022-07-04T13:03:03;31.20;46.90
30379;DHT22;17168;49.164;9.060;2022-07-04T13:05:33;31.20;46.80
30379;DHT22;17168;49.164;9.060;2022-07-04T13:08:00;31.10;46.70
30379;DHT22;17168;49.164;9.060;2022-07-04T13:10:28;31.00;46.70
30379;DHT22;17168;49.164;9.060;2022-07-04T13:12:55;30.90;46.80
30379;DHT22;17168;49.164;9.060;2022-07-04T13:15:21;30.90;46.90
30379;DHT22;17168;49.164;9.060;2022-07-04T13:17:48;30.90;46.80
30379;DHT22;17168;49.164;9.060;2022-07-04T13:20:15;31.00;46.40
30379;DHT22;17168;49.164;9.060;2022-07-04T13:22:43;31.20;46.00
30379;DHT22;17168;49.164;9.060;2022-07-04T13:25:10;31.30;45.90
30379;DHT22;17168;49.164;9.060;2022-07-04T13:27:37;31.40;45.60
30379;DHT22;17168;49.164;9.060;2022-07-04T13:30:05;31.60;45.60
30379;DHT22;17168;49.164;9.060;2022-07-04T13:32:32;31.70;45.00
30379;DHT22;17168;49.164;9.060;2022-07-04T13:35:03;31.50;44.40
30379;DHT22;17168;49.164;9.060;2022-07-04T13:37:30;31.40;44.30
30379;DHT22;17168;49.164;9.060;2022-07-04T13:39:59;31.30;44.10
30379;DHT22;17168;49.164;9.060;2022-07-04T13:42:25;31.30;43.60
30379;DHT22;17168;49.164;9.060;2022-07-04T13:45:11;31.30;43.70
30379;DHT22;17168;49.164;9.060;2022-07-04T13:47:39;31.50;43.60
30379;DHT22;17168;49.164;9.060;2022-07-04T13:50:07;31.60;43.30
30379;DHT22;17168;49.164;9.060;2022-07-04T13:52:34;31.60;42.80
30379;DHT22;17168;49.164;9.060;2022-07-04T13:55:03;31.70;42.40
30379;DHT22;17168;49.164;9.060;2022-07-04T13:57:30;31.60;42.40
30379;DHT22;17168;49.164;9.060;2022-07-04T13:59:57;31.70;42.50
30379;DHT22;17168;49.164;9.060;2022-07-04T14:02:24;31.50;42.20
30379;DHT22;17168;49.164;9.060;2022-07-04T14:04:51;31.40;42.00
30379;DHT22;17168;49.164;9.060;2022-07-04T14:07:18;31.30;41.70
30379;DHT22;17168;49.164;9.060;2022-07-04T14:09:45;31.30;41.30
30379;DHT22;17168;49.164;9.060;2022-07-04T14:12:14;31.30;41.00
30379;DHT22;17168;49.164;9.060;2022-07-04T14:14:42;31.30;40.90
30379;DHT22;17168;49.164;9.060;2022-07-04T14:17:09;31.30;40.80
30379;DHT22;17168;49.164;9.060;2022-07-04T14:19:56;31.40;41.00
30379;DHT22;17168;49.164;9.060;2022-07-04T14:22:23;31.40;40.50
30379;DHT22;17168;49.164;9.060;2022-07-04T14:24:50;31.40;39.90
30379;DHT22;17168;49.164;9.060;2022-07-04T14:27:28;31.40;40.20
30379;DHT22;17168;49.164;9.060;2022-07-04T14:29:59;31.40;40.20
30379;DHT22;17168;49.164;9.060;2022-07-04T14:32:26;31.40;40.00
30379;DHT22;17168;49.164;9.060;2022-07-04T14:34:53;31.40;39.80
30379;DHT22;17168;49.164;9.060;2022-07-04T14:37:20;31.40;39.80
30379;DHT22;17168;49.164;9.060;2022-07-04T14:39:47;31.40;39.70
30379;DHT22;17168;49.164;9.060;2022-07-04T14:42:14;31.40;39.50
30379;DHT22;17168;49.164;9.060;2022-07-04T14:44:42;31.40;39.10
30379;DHT22;17168;49.164;9.060;2022-07-04T14:47:09;31.40;39.10
30379;DHT22;17168;49.164;9.060;2022-07-04T14:49:38;31.50;39.10
30379;DHT22;17168;49.164;9.060;2022-07-04T14:52:05;31.50;39.80
30379;DHT22;17168;49.164;9.060;2022-07-04T14:54:32;31.50;39.80
30379;DHT22;17168;49.164;9.060;2022-07-04T14:56:59;31.40;39.70
30379;DHT22;17168;49.164;9.060;2022-07-04T14:59:26;31.30;39.90
30379;DHT22;17168;49.164;9.060;2022-07-04T15:01:54;31.30;39.80
30379;DHT22;17168;49.164;9.060;2022-07-04T15:04:21;31.20;39.60
30379;DHT22;17168;49.164;9.060;2022-07-04T15:06:48;31.10;39.70
30379;DHT22;17168;49.164;9.060;2022-07-04T15:09:15;31.10;39.70
30379;DHT22;17168;49.164;9.060;2022-07-04T15:11:42;31.10;39.10
30379;DHT22;17168;49.164;9.060;2022-07-04T15:14:08;31.10;38.90
30379;DHT22;17168;49.164;9.060;2022-07-04T15:16:35;31.10;39.10
30379;DHT22;17168;49.164;9.060;2022-07-04T15:19:04;31.20;39.10
30379;DHT22;17168;49.164;9.060;2022-07-04T15:21:30;31.20;39.20
30379;DHT22;17168;49.164;9.060;2022-07-04T15:24:16;31.30;39.10
30379;DHT22;17168;49.164;9.060;2022-07-04T15:26:44;31.30;39.20
30379;DHT22;17168;49.164;9.060;2022-07-04T15:29:12;31.30;39.10
30379;DHT22;17168;49.164;9.060;2022-07-04T15:31:41;31.40;39.00
30379;DHT22;17168;49.164;9.060;2022-07-04T15:34:09;31.40;38.70
30379;DHT22;17168;49.164;9.060;2022-07-04T15:36:36;31.30;38.70
30379;DHT22;17168;49.164;9.060;2022-07-04T15:39:06;31.30;39.00
30379;DHT22;17168;49.164;9.060;2022-07-04T15:41:34;31.30;38.90
30379;DHT22;17168;49.164;9.060;2022-07-04T15:44:01;31.20;38.80
30379;DHT22;17168;49.164;9.060;2022-07-04T15:46:28;31.20;38.90